sensor_id;sensor_type;location;lat;lon;timestamp;P1;durP1;ratioP1;P2;durP2;ratioP2
50337;SDS011;46221;51.178;5.900;2023-12-04T00:01:44;8.20;;;4.57;;
50337;SDS011;46221;51.178;5.900;2023-12-04T00:04:11;6.80;;;4.63;;
50337;SDS011;46221;51.178;5.900;2023-12-04T00:06:38;7.35;;;4.65;;
50337;SDS011;46221;51.178;5.900;2023-12-04T00:09:04;8.65;;;4.75;;
50337;SDS011;46221;51.178;5.900;2023-12-04T00:11:30;6.97;;;4.65;;
50337;SDS011;46221;51.178;5.900;2023-12-04T00:13:58;7.00;;;4.35;;
50337;SDS011;46221;51.178;5.900;2023-12-04T00:16:25;8.63;;;4.55;;
50337;SDS011;46221;51.178;5.900;2023-12-04T00:18:51;6.63;;;4.13;;
50337;SDS011;46221;51.178;5.900;2023-12-04T00:21:18;6.32;;;4.15;;
50337;SDS011;46221;51.178;5.900;2023-12-04T00:23:44;8.45;;;5.05;;
50337;SDS011;46221;51.178;5.900;2023-12-04T00:26:11;7.43;;;4.68;;
50337;SDS011;46221;51.178;5.900;2023-12-04T00:28:40;6.10;;;4.45;;
50337;SDS011;46221;51.178;5.900;2023-12-04T00:31:07;6.88;;;4.07;;
50337;SDS011;46221;51.178;5.900;2023-12-04T00:33:34;6.63;;;4.63;;
50337;SDS011;46221;51.178;5.900;2023-12-04T00:36:01;7.10;;;4.45;;
50337;SDS011;46221;51.178;5.900;2023-12-04T00:38:27;7.00;;;4.18;;
50337;SDS011;46221;51.178;5.900;2023-12-04T00:40:54;6.38;;;4.68;;
50337;SDS011;46221;51.178;5.900;2023-12-04T00:43:20;6.50;;;3.70;;
50337;SDS011;46221;51.178;5.900;2023-12-04T00:45:46;7.43;;;4.45;;
50337;SDS011;46221;51.178;5.900;2023-12-04T00:48:13;6.07;;;4.28;;
50337;SDS011;46221;51.178;5.900;2023-12-04T00:50:39;6.53;;;4.30;;
50337;SDS011;46221;51.178;5.900;2023-12-04T00:53:05;6.55;;;4.35;;
50337;SDS011;46221;51.178;5.900;2023-12-04T00:55:32;6.72;;;4.30;;
50337;SDS011;46221;51.178;5.900;2023-12-04T00:57:58;5.80;;;4.03;;
50337;SDS011;46221;51.178;5.900;2023-12-04T01:00:25;8.48;;;4.82;;
50337;SDS011;46221;51.178;5.900;2023-12-04T01:02:51;7.78;;;4.85;;
50337;SDS011;46221;51.178;5.900;2023-12-04T01:05:18;8.23;;;4.53;;
50337;SDS011;46221;51.178;5.900;2023-12-04T01:07:44;6.20;;;4.22;;
50337;SDS011;46221;51.178;5.900;2023-12-04T01:10:10;6.28;;;4.60;;
50337;SDS011;46221;51.178;5.900;2023-12-04T01:12:37;6.13;;;3.88;;
50337;SDS011;46221;51.178;5.900;2023-12-04T01:15:03;6.40;;;4.00;;
50337;SDS011;46221;51.178;5.900;2023-12-04T01:17:30;6.03;;;3.72;;
50337;SDS011;46221;51.178;5.900;2023-12-04T01:19:56;5.72;;;3.97;;
50337;SDS011;46221;51.178;5.900;2023-12-04T01:22:23;5.78;;;3.60;;
50337;SDS011;46221;51.178;5.900;2023-12-04T01:24:50;5.70;;;3.88;;
50337;SDS011;46221;51.178;5.900;2023-12-04T01:27:16;6.25;;;4.40;;
50337;SDS011;46221;51.178;5.900;2023-12-04T01:29:43;5.85;;;3.78;;
50337;SDS011;46221;51.178;5.900;2023-12-04T01:32:09;6.28;;;3.80;;
50337;SDS011;46221;51.178;5.900;2023-12-04T01:34:35;6.18;;;3.90;;
50337;SDS011;46221;51.178;5.900;2023-12-04T01:37:02;6.85;;;4.10;;
50337;SDS011;46221;51.178;5.900;2023-12-04T01:39:28;5.82;;;3.65;;
50337;SDS011;46221;51.178;5.900;2023-12-04T01:41:55;6.32;;;3.97;;
50337;SDS011;46221;51.178;5.900;2023-12-04T01:44:21;6.22;;;4.03;;
50337;SDS011;46221;51.178;5.900;2023-12-04T01:46:48;6.03;;;3.78;;
50337;SDS011;46221;51.178;5.900;2023-12-04T01:49:15;5.43;;;3.80;;
50337;SDS011;46221;51.178;5.900;2023-12-04T01:51:42;6.40;;;3.95;;
50337;SDS011;46221;51.178;5.900;2023-12-04T01:54:09;5.75;;;3.65;;
50337;SDS011;46221;51.178;5.900;2023-12-04T01:56:35;6.05;;;3.72;;
50337;SDS011;46221;51.178;5.900;2023-12-04T01:59:02;6.30;;;3.80;;
50337;SDS011;46221;51.178;5.900;2023-12-04T02:01:29;6.07;;;3.80;;
50337;SDS011;46221;51.178;5.900;2023-12-04T02:03:56;5.45;;;3.78;;
50337;SDS011;46221;51.178;5.900;2023-12-04T02:06:23;5.60;;;3.78;;
50337;SDS011;46221;51.178;5.900;2023-12-04T02:08:49;5.78;;;3.75;;
50337;SDS011;46221;51.178;5.900;2023-12-04T02:11:15;7.28;;;3.70;;
50337;SDS011;46221;51.178;5.900;2023-12-04T02:13:42;5.50;;;3.40;;
50337;SDS011;46221;51.178;5.900;2023-12-04T02:16:09;5.38;;;3.78;;
50337;SDS011;46221;51.178;5.900;2023-12-04T02:18:35;6.03;;;3.92;;
50337;SDS011;46221;51.178;5.900;2023-12-04T02:21:02;6.05;;;3.28;;
50337;SDS011;46221;51.178;5.900;2023-12-04T02:23:29;5.97;;;3.92;;
50337;SDS011;46221;51.178;5.900;2023-12-04T02:25:58;6.82;;;3.67;;
50337;SDS011;46221;51.178;5.900;2023-12-04T02:28:26;5.40;;;3.50;;
50337;SDS011;46221;51.178;5.900;2023-12-04T02:30:53;6.00;;;3.85;;
50337;SDS011;46221;51.178;5.900;2023-12-04T02:33:23;6.22;;;3.85;;
50337;SDS011;46221;51.178;5.900;2023-12-04T02:35:50;5.72;;;3.65;;
50337;SDS011;46221;51.178;5.900;2023-12-04T02:38:17;7.15;;;4.35;;
50337;SDS011;46221;51.178;5.900;2023-12-04T02:40:43;5.68;;;3.35;;
50337;SDS011;46221;51.178;5.900;2023-12-04T02:43:10;5.60;;;3.97;;
50337;SDS011;46221;51.178;5.900;2023-12-04T02:45:37;5.72;;;3.42;;
50337;SDS011;46221;51.178;5.900;2023-12-04T02:48:03;5.82;;;3.60;;
50337;SDS011;46221;51.178;5.900;2023-12-04T02:50:30;7.15;;;3.70;;
50337;SDS011;46221;51.178;5.900;2023-12-04T02:52:56;5.28;;;3.58;;
50337;SDS011;46221;51.178;5.900;2023-12-04T02:55:22;5.22;;;3.40;;
50337;SDS011;46221;51.178;5.900;2023-12-04T02:57:49;5.90;;;3.58;;
50337;SDS011;46221;51.178;5.900;2023-12-04T03:00:15;5.20;;;3.30;;
50337;SDS011;46221;51.178;5.900;2023-12-04T03:02:42;5.72;;;3.03;;
50337;SDS011;46221;51.178;5.900;2023-12-04T03:05:08;5.53;;;3.45;;
50337;SDS011;46221;51.178;5.900;2023-12-04T03:07:37;4.35;;;2.92;;
50337;SDS011;46221;51.178;5.900;2023-12-04T03:10:04;5.00;;;3.55;;
50337;SDS011;46221;51.178;5.900;2023-12-04T03:12:31;5.72;;;3.60;;
50337;SDS011;46221;51.178;5.900;2023-12-04T03:14:57;6.07;;;3.20;;
50337;SDS011;46221;51.178;5.900;2023-12-04T03:17:24;6.50;;;3.55;;
50337;SDS011;46221;51.178;5.900;2023-12-04T03:19:50;5.75;;;3.63;;
50337;SDS011;46221;51.178;5.900;2023-12-04T03:22:17;6.03;;;3.60;;
50337;SDS011;46221;51.178;5.900;2023-12-04T03:24:44;5.60;;;3.30;;
50337;SDS011;46221;51.178;5.900;2023-12-04T03:27:10;5.80;;;3.42;;
50337;SDS011;46221;51.178;5.900;2023-12-04T03:29:36;5.30;;;3.35;;
50337;SDS011;46221;51.178;5.900;2023-12-04T03:32:03;4.95;;;3.55;;
50337;SDS011;46221;51.178;5.900;2023-12-04T03:34:30;5.28;;;3.38;;
50337;SDS011;46221;51.178;5.900;2023-12-04T03:36:56;5.13;;;3.42;;
50337;SDS011;46221;51.178;5.900;2023-12-04T03:39:22;4.95;;;3.20;;
50337;SDS011;46221;51.178;5.900;2023-12-04T03:41:49;5.15;;;3.40;;
50337;SDS011;46221;51.178;5.900;2023-12-04T03:44:15;4.28;;;2.67;;
50337;SDS011;46221;51.178;5.900;2023-12-04T03:46:41;5.28;;;3.65;;
50337;SDS011;46221;51.178;5.900;2023-12-04T03:49:08;5.15;;;3.22;;
50337;SDS011;46221;51.178;5.900;2023-12-04T03:51:34;4.80;;;3.38;;
50337;SDS011;46221;51.178;5.900;2023-12-04T03:54:01;4.80;;;3.25;;
50337;SDS011;46221;51.178;5.900;2023-12-04T03:56:27;5.75;;;3.38;;
50337;SDS011;46221;51.178;5.900;2023-12-04T03:58:53;5.35;;;3.53;;
50337;SDS011;46221;51.178;5.900;2023-12-04T04:01:21;4.78;;;2.97;;
50337;SDS011;46221;51.178;5.900;2023-12-04T04:03:48;5.45;;;3.25;;
50337;SDS011;46221;51.178;5.900;2023-12-04T04:06:14;5.78;;;3.40;;
50337;SDS011;46221;51.178;5.900;2023-12-04T04:08:40;6.13;;;3.40;;
50337;SDS011;46221;51.178;5.900;2023-12-04T04:11:07;5.38;;;3.53;;
50337;SDS011;46221;51.178;5.900;2023-12-04T04:13:33;5.28;;;3.10;;
50337;SDS011;46221;51.178;5.900;2023-12-04T04:16:00;5.85;;;3.40;;
50337;SDS011;46221;51.178;5.900;2023-12-04T04:18:26;4.80;;;3.10;;
50337;SDS011;46221;51.178;5.900;2023-12-04T04:20:53;5.38;;;3.95;;
50337;SDS011;46221;51.178;5.900;2023-12-04T04:23:19;5.22;;;3.17;;
50337;SDS011;46221;51.178;5.900;2023-12-04T04:25:47;4.70;;;3.15;;
50337;SDS011;46221;51.178;5.900;2023-12-04T04:28:13;5.05;;;3.03;;
50337;SDS011;46221;51.178;5.900;2023-12-04T04:30:42;5.50;;;3.25;;
50337;SDS011;46221;51.178;5.900;2023-12-04T04:33:08;4.68;;;3.10;;
50337;SDS011;46221;51.178;5.900;2023-12-04T04:35:35;4.93;;;3.10;;
50337;SDS011;46221;51.178;5.900;2023-12-04T04:38:01;5.57;;;3.20;;
50337;SDS011;46221;51.178;5.900;2023-12-04T04:40:28;5.85;;;2.85;;
50337;SDS011;46221;51.178;5.900;2023-12-04T04:42:54;5.07;;;3.05;;
50337;SDS011;46221;51.178;5.900;2023-12-04T04:45:20;4.93;;;3.20;;
50337;SDS011;46221;51.178;5.900;2023-12-04T04:47:47;6.63;;;3.38;;
50337;SDS011;46221;51.178;5.900;2023-12-04T04:50:13;3.72;;;2.40;;
50337;SDS011;46221;51.178;5.900;2023-12-04T04:52:40;5.10;;;3.28;;
50337;SDS011;46221;51.178;5.900;2023-12-04T04:55:06;5.57;;;3.45;;
50337;SDS011;46221;51.178;5.900;2023-12-04T04:57:33;5.07;;;3.20;;
50337;SDS011;46221;51.178;5.900;2023-12-04T04:59:59;4.95;;;3.10;;
50337;SDS011;46221;51.178;5.900;2023-12-04T05:02:26;4.38;;;2.83;;
50337;SDS011;46221;51.178;5.900;2023-12-04T05:04:53;4.45;;;3.00;;
50337;SDS011;46221;51.178;5.900;2023-12-04T05:07:20;5.28;;;3.10;;
50337;SDS011;46221;51.178;5.900;2023-12-04T05:09:46;4.47;;;3.22;;
50337;SDS011;46221;51.178;5.900;2023-12-04T05:12:16;5.60;;;3.30;;
50337;SDS011;46221;51.178;5.900;2023-12-04T05:14:42;4.80;;;3.10;;
50337;SDS011;46221;51.178;5.900;2023-12-04T05:17:08;5.22;;;3.10;;
50337;SDS011;46221;51.178;5.900;2023-12-04T05:19:37;6.00;;;3.13;;
50337;SDS011;46221;51.178;5.900;2023-12-04T05:22:04;6.53;;;3.45;;
50337;SDS011;46221;51.178;5.900;2023-12-04T05:24:30;5.10;;;2.55;;
50337;SDS011;46221;51.178;5.900;2023-12-04T05:26:56;4.82;;;2.95;;
50337;SDS011;46221;51.178;5.900;2023-12-04T05:29:23;5.47;;;2.95;;
50337;SDS011;46221;51.178;5.900;2023-12-04T05:31:52;4.13;;;2.88;;
50337;SDS011;46221;51.178;5.900;2023-12-04T05:34:19;4.47;;;2.70;;
50337;SDS011;46221;51.178;5.900;2023-12-04T05:36:46;5.53;;;3.25;;
50337;SDS011;46221;51.178;5.900;2023-12-04T05:39:13;4.45;;;2.53;;
50337;SDS011;46221;51.178;5.900;2023-12-04T05:41:39;4.13;;;2.45;;
50337;SDS011;46221;51.178;5.900;2023-12-04T05:44:06;5.22;;;3.00;;
50337;SDS011;46221;51.178;5.900;2023-12-04T05:46:32;5.85;;;2.95;;
50337;SDS011;46221;51.178;5.900;2023-12-04T05:48:58;4.40;;;2.67;;
50337;SDS011;46221;51.178;5.900;2023-12-04T05:51:25;5.03;;;3.05;;
50337;SDS011;46221;51.178;5.900;2023-12-04T05:53:55;4.95;;;2.65;;
50337;SDS011;46221;51.178;5.900;2023-12-04T05:56:22;5.03;;;3.13;;
50337;SDS011;46221;51.178;5.900;2023-12-04T05:58:48;4.20;;;2.78;;
50337;SDS011;46221;51.178;5.900;2023-12-04T06:01:14;4.43;;;2.85;;
50337;SDS011;46221;51.178;5.900;2023-12-04T06:03:41;8.13;;;4.00;;
50337;SDS011;46221;51.178;5.900;2023-12-04T06:06:08;4.60;;;2.92;;
50337;SDS011;46221;51.178;5.900;2023-12-04T06:08:34;4.68;;;3.10;;
50337;SDS011;46221;51.178;5.900;2023-12-04T06:11:01;6.13;;;3.00;;
50337;SDS011;46221;51.178;5.900;2023-12-04T06:13:27;6.80;;;3.35;;
50337;SDS011;46221;51.178;5.900;2023-12-04T06:15:53;5.70;;;2.55;;
50337;SDS011;46221;51.178;5.900;2023-12-04T06:18:20;5.97;;;2.78;;
50337;SDS011;46221;51.178;5.900;2023-12-04T06:20:53;5.35;;;2.88;;
50337;SDS011;46221;51.178;5.900;2023-12-04T06:23:20;4.32;;;2.50;;
50337;SDS011;46221;51.178;5.900;2023-12-04T06:25:46;7.60;;;2.75;;
50337;SDS011;46221;51.178;5.900;2023-12-04T06:28:12;5.05;;;2.70;;
50337;SDS011;46221;51.178;5.900;2023-12-04T06:30:42;9.50;;;2.50;;
50337;SDS011;46221;51.178;5.900;2023-12-04T06:33:08;5.55;;;2.70;;
50337;SDS011;46221;51.178;5.900;2023-12-04T06:35:38;5.30;;;2.72;;
50337;SDS011;46221;51.178;5.900;2023-12-04T06:38:07;6.20;;;2.80;;
50337;SDS011;46221;51.178;5.900;2023-12-04T06:40:34;7.38;;;2.45;;
50337;SDS011;46221;51.178;5.900;2023-12-04T06:43:04;6.90;;;3.22;;
50337;SDS011;46221;51.178;5.900;2023-12-04T06:45:30;7.68;;;2.58;;
50337;SDS011;46221;51.178;5.900;2023-12-04T06:47:59;5.13;;;2.35;;
50337;SDS011;46221;51.178;5.900;2023-12-04T06:50:25;5.18;;;2.70;;
50337;SDS011;46221;51.178;5.900;2023-12-04T06:52:52;5.35;;;2.85;;
50337;SDS011;46221;51.178;5.900;2023-12-04T06:55:19;6.10;;;3.17;;
50337;SDS011;46221;51.178;5.900;2023-12-04T06:57:45;7.50;;;3.33;;
50337;SDS011;46221;51.178;5.900;2023-12-04T07:00:12;5.72;;;2.55;;
50337;SDS011;46221;51.178;5.900;2023-12-04T07:02:47;4.83;;;2.97;;
50337;SDS011;46221;51.178;5.900;2023-12-04T07:05:15;8.15;;;2.70;;
50337;SDS011;46221;51.178;5.900;2023-12-04T07:07:42;7.63;;;2.83;;
50337;SDS011;46221;51.178;5.900;2023-12-04T07:10:08;6.10;;;3.40;;
50337;SDS011;46221;51.178;5.900;2023-12-04T07:12:38;4.30;;;2.50;;
50337;SDS011;46221;51.178;5.900;2023-12-04T07:15:04;4.20;;;2.42;;
50337;SDS011;46221;51.178;5.900;2023-12-04T07:17:31;6.35;;;2.85;;
50337;SDS011;46221;51.178;5.900;2023-12-04T07:19:57;4.60;;;2.70;;
50337;SDS011;46221;51.178;5.900;2023-12-04T07:22:23;6.10;;;2.92;;
50337;SDS011;46221;51.178;5.900;2023-12-04T07:24:50;4.28;;;2.65;;
50337;SDS011;46221;51.178;5.900;2023-12-04T07:27:17;6.22;;;3.10;;
50337;SDS011;46221;51.178;5.900;2023-12-04T07:29:44;5.13;;;2.47;;
50337;SDS011;46221;51.178;5.900;2023-12-04T07:32:10;4.60;;;3.10;;
50337;SDS011;46221;51.178;5.900;2023-12-04T07:34:36;5.10;;;2.28;;
50337;SDS011;46221;51.178;5.900;2023-12-04T07:37:03;5.13;;;2.97;;
50337;SDS011;46221;51.178;5.900;2023-12-04T07:39:29;4.72;;;2.85;;
50337;SDS011;46221;51.178;5.900;2023-12-04T07:41:56;4.80;;;2.67;;
50337;SDS011;46221;51.178;5.900;2023-12-04T07:44:36;5.82;;;3.28;;
50337;SDS011;46221;51.178;5.900;2023-12-04T07:47:03;6.15;;;3.38;;
50337;SDS011;46221;51.178;5.900;2023-12-04T07:49:29;6.32;;;2.95;;
50337;SDS011;46221;51.178;5.900;2023-12-04T07:51:56;7.65;;;2.80;;
50337;SDS011;46221;51.178;5.900;2023-12-04T07:54:24;4.38;;;2.55;;
50337;SDS011;46221;51.178;5.900;2023-12-04T07:56:52;4.68;;;2.97;;
50337;SDS011;46221;51.178;5.900;2023-12-04T07:59:19;5.70;;;3.40;;
50337;SDS011;46221;51.178;5.900;2023-12-04T08:01:45;5.03;;;2.83;;
50337;SDS011;46221;51.178;5.900;2023-12-04T08:04:12;5.60;;;3.20;;
50337;SDS011;46221;51.178;5.900;2023-12-04T08:06:38;5.00;;;2.90;;
50337;SDS011;46221;51.178;5.900;2023-12-04T08:09:05;5.90;;;2.95;;
50337;SDS011;46221;51.178;5.900;2023-12-04T08:11:36;5.15;;;3.45;;
50337;SDS011;46221;51.178;5.900;2023-12-04T08:14:02;4.93;;;2.92;;
50337;SDS011;46221;51.178;5.900;2023-12-04T08:16:29;4.60;;;2.80;;
50337;SDS011;46221;51.178;5.900;2023-12-04T08:18:55;5.60;;;2.58;;
50337;SDS011;46221;51.178;5.900;2023-12-04T08:21:22;5.28;;;2.97;;
50337;SDS011;46221;51.178;5.900;2023-12-04T08:23:48;5.65;;;2.90;;
50337;SDS011;46221;51.178;5.900;2023-12-04T08:26:20;6.18;;;2.50;;
50337;SDS011;46221;51.178;5.900;2023-12-04T08:28:47;4.65;;;2.78;;
50337;SDS011;46221;51.178;5.900;2023-12-04T08:31:13;4.75;;;2.58;;
50337;SDS011;46221;51.178;5.900;2023-12-04T08:33:39;4.55;;;2.72;;
50337;SDS011;46221;51.178;5.900;2023-12-04T08:36:06;4.95;;;3.33;;
50337;SDS011;46221;51.178;5.900;2023-12-04T08:38:33;5.10;;;2.88;;
50337;SDS011;46221;51.178;5.900;2023-12-04T08:40:59;4.60;;;2.92;;
50337;SDS011;46221;51.178;5.900;2023-12-04T08:43:26;4.40;;;2.55;;
50337;SDS011;46221;51.178;5.900;2023-12-04T08:45:52;4.60;;;2.90;;
50337;SDS011;46221;51.178;5.900;2023-12-04T08:48:18;4.60;;;2.80;;
50337;SDS011;46221;51.178;5.900;2023-12-04T08:50:45;4.05;;;2.75;;
50337;SDS011;46221;51.178;5.900;2023-12-04T08:53:11;3.90;;;2.60;;
50337;SDS011;46221;51.178;5.900;2023-12-04T08:55:38;4.15;;;2.92;;
50337;SDS011;46221;51.178;5.900;2023-12-04T08:58:04;4.40;;;2.58;;
50337;SDS011;46221;51.178;5.900;2023-12-04T09:00:31;5.28;;;3.00;;
50337;SDS011;46221;51.178;5.900;2023-12-04T09:02:59;4.65;;;2.60;;
50337;SDS011;46221;51.178;5.900;2023-12-04T09:05:35;5.65;;;2.75;;
50337;SDS011;46221;51.178;5.900;2023-12-04T09:08:02;4.32;;;2.90;;
50337;SDS011;46221;51.178;5.900;2023-12-04T09:10:31;4.97;;;2.83;;
50337;SDS011;46221;51.178;5.900;2023-12-04T09:13:18;5.05;;;3.05;;
50337;SDS011;46221;51.178;5.900;2023-12-04T09:15:44;5.03;;;3.00;;
50337;SDS011;46221;51.178;5.900;2023-12-04T09:18:10;5.60;;;2.95;;
50337;SDS011;46221;51.178;5.900;2023-12-04T09:20:37;4.25;;;2.70;;
50337;SDS011;46221;51.178;5.900;2023-12-04T09:23:04;5.82;;;3.38;;
50337;SDS011;46221;51.178;5.900;2023-12-04T09:25:34;4.63;;;3.00;;
50337;SDS011;46221;51.178;5.900;2023-12-04T09:28:01;6.13;;;2.72;;
50337;SDS011;46221;51.178;5.900;2023-12-04T09:30:27;5.68;;;3.30;;
50337;SDS011;46221;51.178;5.900;2023-12-04T09:32:54;5.80;;;2.97;;
50337;SDS011;46221;51.178;5.900;2023-12-04T09:35:20;5.43;;;3.42;;
50337;SDS011;46221;51.178;5.900;2023-12-04T09:37:47;6.22;;;3.13;;
50337;SDS011;46221;51.178;5.900;2023-12-04T09:40:16;6.70;;;3.13;;
50337;SDS011;46221;51.178;5.900;2023-12-04T09:42:43;5.28;;;3.83;;
50337;SDS011;46221;51.178;5.900;2023-12-04T09:45:09;7.70;;;3.15;;
50337;SDS011;46221;51.178;5.900;2023-12-04T09:47:36;5.93;;;2.95;;
50337;SDS011;46221;51.178;5.900;2023-12-04T09:50:03;4.80;;;3.30;;
50337;SDS011;46221;51.178;5.900;2023-12-04T09:52:30;5.63;;;3.50;;
50337;SDS011;46221;51.178;5.900;2023-12-04T09:54:57;6.45;;;3.30;;
50337;SDS011;46221;51.178;5.900;2023-12-04T09:57:23;5.35;;;3.25;;
50337;SDS011;46221;51.178;5.900;2023-12-04T09:59:51;3.97;;;2.63;;
50337;SDS011;46221;51.178;5.900;2023-12-04T10:02:19;4.57;;;3.20;;
50337;SDS011;46221;51.178;5.900;2023-12-04T10:04:45;5.25;;;3.17;;
50337;SDS011;46221;51.178;5.900;2023-12-04T10:07:12;5.93;;;3.30;;
50337;SDS011;46221;51.178;5.900;2023-12-04T10:09:38;4.63;;;3.05;;
50337;SDS011;46221;51.178;5.900;2023-12-04T10:12:05;5.03;;;3.13;;
50337;SDS011;46221;51.178;5.900;2023-12-04T10:14:32;5.30;;;3.10;;
50337;SDS011;46221;51.178;5.900;2023-12-04T10:16:58;5.32;;;3.47;;
50337;SDS011;46221;51.178;5.900;2023-12-04T10:19:26;5.22;;;3.08;;
50337;SDS011;46221;51.178;5.900;2023-12-04T10:21:57;4.97;;;3.05;;
50337;SDS011;46221;51.178;5.900;2023-12-04T10:24:26;5.15;;;2.88;;
50337;SDS011;46221;51.178;5.900;2023-12-04T10:26:53;4.47;;;2.92;;
50337;SDS011;46221;51.178;5.900;2023-12-04T10:29:19;5.63;;;3.10;;
50337;SDS011;46221;51.178;5.900;2023-12-04T10:31:46;4.68;;;2.95;;
50337;SDS011;46221;51.178;5.900;2023-12-04T10:34:16;4.20;;;2.60;;
50337;SDS011;46221;51.178;5.900;2023-12-04T10:36:43;4.03;;;2.70;;
50337;SDS011;46221;51.178;5.900;2023-12-04T10:39:12;4.53;;;2.83;;
50337;SDS011;46221;51.178;5.900;2023-12-04T10:41:39;4.82;;;2.83;;
50337;SDS011;46221;51.178;5.900;2023-12-04T10:44:07;5.20;;;2.53;;
50337;SDS011;46221;51.178;5.900;2023-12-04T10:46:36;4.13;;;2.75;;
50337;SDS011;46221;51.178;5.900;2023-12-04T10:49:04;4.20;;;2.80;;
50337;SDS011;46221;51.178;5.900;2023-12-04T10:51:32;3.38;;;2.30;;
50337;SDS011;46221;51.178;5.900;2023-12-04T10:53:59;4.32;;;2.85;;
50337;SDS011;46221;51.178;5.900;2023-12-04T10:56:30;4.85;;;2.78;;
50337;SDS011;46221;51.178;5.900;2023-12-04T10:58:57;4.68;;;3.03;;
50337;SDS011;46221;51.178;5.900;2023-12-04T11:01:24;4.13;;;2.55;;
50337;SDS011;46221;51.178;5.900;2023-12-04T11:03:52;4.25;;;2.90;;
50337;SDS011;46221;51.178;5.900;2023-12-04T11:06:22;3.85;;;2.70;;
50337;SDS011;46221;51.178;5.900;2023-12-04T11:08:50;5.20;;;2.53;;
50337;SDS011;46221;51.178;5.900;2023-12-04T11:11:25;4.28;;;2.55;;
50337;SDS011;46221;51.178;5.900;2023-12-04T11:13:54;3.50;;;2.10;;
50337;SDS011;46221;51.178;5.900;2023-12-04T11:16:37;4.00;;;2.88;;
50337;SDS011;46221;51.178;5.900;2023-12-04T11:19:12;3.90;;;2.63;;
50337;SDS011;46221;51.178;5.900;2023-12-04T11:21:41;4.22;;;2.63;;
50337;SDS011;46221;51.178;5.900;2023-12-04T11:24:07;3.75;;;2.50;;
50337;SDS011;46221;51.178;5.900;2023-12-04T11:26:34;3.72;;;2.33;;
50337;SDS011;46221;51.178;5.900;2023-12-04T11:29:02;4.22;;;2.85;;
50337;SDS011;46221;51.178;5.900;2023-12-04T11:31:29;4.07;;;2.50;;
50337;SDS011;46221;51.178;5.900;2023-12-04T11:34:00;3.25;;;2.17;;
50337;SDS011;46221;51.178;5.900;2023-12-04T11:36:27;4.30;;;2.92;;
50337;SDS011;46221;51.178;5.900;2023-12-04T11:38:53;3.95;;;2.70;;
50337;SDS011;46221;51.178;5.900;2023-12-04T11:41:21;3.83;;;2.38;;
50337;SDS011;46221;51.178;5.900;2023-12-04T11:43:53;7.65;;;2.60;;
50337;SDS011;46221;51.178;5.900;2023-12-04T11:46:24;3.75;;;2.50;;
50337;SDS011;46221;51.178;5.900;2023-12-04T11:48:55;3.58;;;2.40;;
50337;SDS011;46221;51.178;5.900;2023-12-04T11:54:13;4.03;;;2.50;;
50337;SDS011;46221;51.178;5.900;2023-12-04T11:56:40;4.70;;;2.55;;
50337;SDS011;46221;51.178;5.900;2023-12-04T11:59:07;4.13;;;2.65;;
50337;SDS011;46221;51.178;5.900;2023-12-04T12:01:35;4.57;;;2.60;;
50337;SDS011;46221;51.178;5.900;2023-12-04T12:04:11;3.70;;;2.65;;
50337;SDS011;46221;51.178;5.900;2023-12-04T12:06:37;5.68;;;3.25;;
50337;SDS011;46221;51.178;5.900;2023-12-04T12:09:04;4.00;;;2.63;;
50337;SDS011;46221;51.178;5.900;2023-12-04T12:11:33;4.28;;;3.10;;
50337;SDS011;46221;51.178;5.900;2023-12-04T12:14:00;3.88;;;2.50;;
50337;SDS011;46221;51.178;5.900;2023-12-04T12:16:27;4.32;;;2.65;;
50337;SDS011;46221;51.178;5.900;2023-12-04T12:18:54;3.90;;;2.50;;
50337;SDS011;46221;51.178;5.900;2023-12-04T12:21:21;5.18;;;2.42;;
50337;SDS011;46221;51.178;5.900;2023-12-04T12:23:48;3.83;;;2.40;;
50337;SDS011;46221;51.178;5.900;2023-12-04T12:26:14;3.25;;;2.30;;
50337;SDS011;46221;51.178;5.900;2023-12-04T12:28:41;4.10;;;2.50;;
50337;SDS011;46221;51.178;5.900;2023-12-04T12:31:07;4.25;;;2.50;;
50337;SDS011;46221;51.178;5.900;2023-12-04T12:33:34;3.65;;;2.53;;
50337;SDS011;46221;51.178;5.900;2023-12-04T12:36:00;3.80;;;2.28;;
50337;SDS011;46221;51.178;5.900;2023-12-04T12:38:30;4.70;;;2.58;;
50337;SDS011;46221;51.178;5.900;2023-12-04T12:41:05;4.38;;;2.53;;
50337;SDS011;46221;51.178;5.900;2023-12-04T12:43:31;3.40;;;2.47;;
50337;SDS011;46221;51.178;5.900;2023-12-04T12:45:58;5.05;;;2.60;;
50337;SDS011;46221;51.178;5.900;2023-12-04T12:48:26;3.55;;;2.45;;
50337;SDS011;46221;51.178;5.900;2023-12-04T12:50:54;4.05;;;2.72;;
50337;SDS011;46221;51.178;5.900;2023-12-04T12:53:21;4.00;;;2.67;;
50337;SDS011;46221;51.178;5.900;2023-12-04T12:55:48;3.88;;;2.50;;
50337;SDS011;46221;51.178;5.900;2023-12-04T12:58:15;4.57;;;2.47;;
50337;SDS011;46221;51.178;5.900;2023-12-04T13:00:46;3.80;;;2.30;;
50337;SDS011;46221;51.178;5.900;2023-12-04T13:03:14;4.53;;;2.50;;
50337;SDS011;46221;51.178;5.900;2023-12-04T13:05:40;3.90;;;2.28;;
50337;SDS011;46221;51.178;5.900;2023-12-04T13:08:07;4.70;;;2.33;;
50337;SDS011;46221;51.178;5.900;2023-12-04T13:10:33;5.55;;;2.60;;
50337;SDS011;46221;51.178;5.900;2023-12-04T13:13:00;3.38;;;2.17;;
50337;SDS011;46221;51.178;5.900;2023-12-04T13:15:26;3.63;;;2.28;;
50337;SDS011;46221;51.178;5.900;2023-12-04T13:17:52;3.65;;;2.10;;
50337;SDS011;46221;51.178;5.900;2023-12-04T13:20:19;4.40;;;2.88;;
50337;SDS011;46221;51.178;5.900;2023-12-04T13:22:45;3.78;;;2.70;;
50337;SDS011;46221;51.178;5.900;2023-12-04T13:25:12;4.32;;;2.40;;
50337;SDS011;46221;51.178;5.900;2023-12-04T13:27:38;4.03;;;2.40;;
50337;SDS011;46221;51.178;5.900;2023-12-04T13:30:06;4.70;;;3.15;;
50337;SDS011;46221;51.178;5.900;2023-12-04T13:32:35;5.30;;;2.40;;
50337;SDS011;46221;51.178;5.900;2023-12-04T13:35:02;3.55;;;2.15;;
50337;SDS011;46221;51.178;5.900;2023-12-04T13:37:31;4.07;;;2.42;;
50337;SDS011;46221;51.178;5.900;2023-12-04T13:39:57;4.93;;;2.72;;
50337;SDS011;46221;51.178;5.900;2023-12-04T13:42:24;3.60;;;2.38;;
50337;SDS011;46221;51.178;5.900;2023-12-04T13:45:09;4.03;;;2.50;;
50337;SDS011;46221;51.178;5.900;2023-12-04T13:47:36;4.05;;;2.42;;
50337;SDS011;46221;51.178;5.900;2023-12-04T13:50:03;4.72;;;2.70;;
50337;SDS011;46221;51.178;5.900;2023-12-04T13:52:29;3.72;;;2.35;;
50337;SDS011;46221;51.178;5.900;2023-12-04T13:54:59;4.05;;;2.53;;
50337;SDS011;46221;51.178;5.900;2023-12-04T13:57:26;4.50;;;2.33;;
50337;SDS011;46221;51.178;5.900;2023-12-04T13:59:59;5.05;;;2.90;;
50337;SDS011;46221;51.178;5.900;2023-12-04T14:02:25;4.57;;;2.80;;
50337;SDS011;46221;51.178;5.900;2023-12-04T14:04:52;5.85;;;2.80;;
50337;SDS011;46221;51.178;5.900;2023-12-04T14:07:19;4.57;;;2.70;;
50337;SDS011;46221;51.178;5.900;2023-12-04T14:09:46;5.25;;;2.95;;
50337;SDS011;46221;51.178;5.900;2023-12-04T14:12:13;4.82;;;2.42;;
50337;SDS011;46221;51.178;5.900;2023-12-04T14:14:42;5.68;;;2.67;;
50337;SDS011;46221;51.178;5.900;2023-12-04T14:17:08;5.63;;;2.92;;
50337;SDS011;46221;51.178;5.900;2023-12-04T14:19:36;3.90;;;2.72;;
50337;SDS011;46221;51.178;5.900;2023-12-04T14:22:05;3.60;;;2.45;;
50337;SDS011;46221;51.178;5.900;2023-12-04T14:24:31;5.90;;;2.67;;
50337;SDS011;46221;51.178;5.900;2023-12-04T14:26:58;3.85;;;2.67;;
50337;SDS011;46221;51.178;5.900;2023-12-04T14:29:24;5.75;;;3.00;;
50337;SDS011;46221;51.178;5.900;2023-12-04T14:31:51;4.13;;;2.67;;
50337;SDS011;46221;51.178;5.900;2023-12-04T14:34:17;4.75;;;2.60;;
50337;SDS011;46221;51.178;5.900;2023-12-04T14:36:44;4.40;;;2.60;;
50337;SDS011;46221;51.178;5.900;2023-12-04T14:39:10;5.38;;;2.75;;
50337;SDS011;46221;51.178;5.900;2023-12-04T14:41:38;4.07;;;2.70;;
50337;SDS011;46221;51.178;5.900;2023-12-04T14:44:05;5.32;;;2.55;;
50337;SDS011;46221;51.178;5.900;2023-12-04T14:46:31;4.70;;;2.40;;
50337;SDS011;46221;51.178;5.900;2023-12-04T14:48:58;5.28;;;2.75;;
50337;SDS011;46221;51.178;5.900;2023-12-04T14:51:25;5.22;;;2.70;;